sensor_id;sensor_type;location;lat;lon;timestamp;pressure;altitude;pressure_sealevel;temperature;humidity
55590;BME280;41452;42.780;23.116;2023-04-07T00:01:44;94065.84;;;-0.10;86.63
55590;BME280;41452;42.780;23.116;2023-04-07T00:04:09;94055.25;;;-0.15;86.83
55590;BME280;41452;42.780;23.116;2023-04-07T00:06:35;94058.97;;;-0.17;86.99
55590;BME280;41452;42.780;23.116;2023-04-07T00:09:00;94030.03;;;-0.36;86.82
55590;BME280;41452;42.780;23.116;2023-04-07T00:11:26;94057.19;;;-0.17;87.33
55590;BME280;41452;42.780;23.116;2023-04-07T00:13:51;94060.41;;;-0.15;87.34
55590;BME280;41452;42.780;23.116;2023-04-07T00:16:16;94052.19;;;-0.18;86.91
55590;BME280;41452;42.780;23.116;2023-04-07T00:18:42;94050.59;;;-0.20;87.12
55590;BME280;41452;42.780;23.116;2023-04-07T00:21:07;94044.31;;;-0.25;86.76
55590;BME280;41452;42.780;23.116;2023-04-07T00:23:33;94051.75;;;-0.22;87.66
55590;BME280;41452;42.780;23.116;2023-04-07T00:25:58;94035.03;;;-0.34;88.16
55590;BME280;41452;42.780;23.116;2023-04-07T00:28:23;94049.66;;;-0.27;87.37
55590;BME280;41452;42.780;23.116;2023-04-07T00:30:49;94025.91;;;-0.45;88.15
55590;BME280;41452;42.780;23.116;2023-04-07T00:33:14;94045.03;;;-0.31;88.92
55590;BME280;41452;42.780;23.116;2023-04-07T00:35:40;94020.91;;;-0.47;89.20
55590;BME280;41452;42.780;23.116;2023-04-07T00:38:05;94047.28;;;-0.28;88.74
55590;BME280;41452;42.780;23.116;2023-04-07T00:40:30;94042.28;;;-0.30;89.37
55590;BME280;41452;42.780;23.116;2023-04-07T00:42:56;94009.66;;;-0.54;89.07
55590;BME280;41452;42.780;23.116;2023-04-07T00:45:21;94031.41;;;-0.48;89.86
55590;BME280;41452;42.780;23.116;2023-04-07T00:47:47;94050.38;;;-0.41;89.58
55590;BME280;41452;42.780;23.116;2023-04-07T00:50:12;94048.97;;;-0.44;89.96
55590;BME280;41452;42.780;23.116;2023-04-07T00:52:38;94047.81;;;-0.41;90.54
55590;BME280;41452;42.780;23.116;2023-04-07T00:55:04;94043.78;;;-0.35;90.29
55590;BME280;41452;42.780;23.116;2023-04-07T00:57:30;94040.03;;;-0.33;89.73
55590;BME280;41452;42.780;23.116;2023-04-07T00:59:56;94040.78;;;-0.24;90.19
55590;BME280;41452;42.780;23.116;2023-04-07T01:13:26;94033.34;;;-0.19;90.44
55590;BME280;41452;42.780;23.116;2023-04-07T01:15:54;94033.97;;;-0.17;90.45
55590;BME280;41452;42.780;23.116;2023-04-07T01:18:25;94032.00;;;-0.15;89.96
55590;BME280;41452;42.780;23.116;2023-04-07T01:20:55;94006.66;;;-0.34;89.13
55590;BME280;41452;42.780;23.116;2023-04-07T01:26:28;94007.44;;;-0.34;87.81
55590;BME280;41452;42.780;23.116;2023-04-07T01:29:17;94022.22;;;-0.20;87.84
55590;BME280;41452;42.780;23.116;2023-04-07T01:31:45;94023.97;;;-0.20;87.19
55590;BME280;41452;42.780;23.116;2023-04-07T01:34:13;94023.63;;;-0.17;86.58
55590;BME280;41452;42.780;23.116;2023-04-07T01:36:41;94029.75;;;-0.18;86.60
55590;BME280;41452;42.780;23.116;2023-04-07T01:39:06;94018.66;;;-0.18;85.72
55590;BME280;41452;42.780;23.116;2023-04-07T01:41:33;94036.41;;;-0.24;86.13
55590;BME280;41452;42.780;23.116;2023-04-07T01:44:00;94032.34;;;-0.18;84.96
55590;BME280;41452;42.780;23.116;2023-04-07T01:46:27;93966.13;;;-0.49;85.72
55590;BME280;41452;42.780;23.116;2023-04-07T01:48:54;94019.09;;;-0.15;84.70
55590;BME280;41452;42.780;23.116;2023-04-07T01:51:21;94025.72;;;-0.12;85.80
55590;BME280;41452;42.780;23.116;2023-04-07T01:53:48;94016.84;;;-0.18;84.60
55590;BME280;41452;42.780;23.116;2023-04-07T01:56:14;94022.47;;;-0.14;84.89
55590;BME280;41452;42.780;23.116;2023-04-07T01:58:39;94002.69;;;-0.22;84.27
55590;BME280;41452;42.780;23.116;2023-04-07T02:01:05;94022.09;;;-0.03;84.53
55590;BME280;41452;42.780;23.116;2023-04-07T02:03:37;94017.28;;;-0.06;84.80
55590;BME280;41452;42.780;23.116;2023-04-07T02:06:06;94023.34;;;0.01;84.79
55590;BME280;41452;42.780;23.116;2023-04-07T02:08:35;94016.19;;;-0.12;84.34
55590;BME280;41452;42.780;23.116;2023-04-07T02:11:02;94021.94;;;-0.02;84.90
55590;BME280;41452;42.780;23.116;2023-04-07T02:13:29;93992.41;;;-0.07;85.06
55590;BME280;41452;42.780;23.116;2023-04-07T02:15:56;94021.16;;;0.13;84.41
55590;BME280;41452;42.780;23.116;2023-04-07T02:18:24;94015.38;;;0.11;84.04
55590;BME280;41452;42.780;23.116;2023-04-07T02:20:51;94013.47;;;0.05;83.80
55590;BME280;41452;42.780;23.116;2023-04-07T02:23:18;94018.03;;;0.17;84.84
55590;BME280;41452;42.780;23.116;2023-04-07T02:25:43;94018.41;;;0.14;84.14
55590;BME280;41452;42.780;23.116;2023-04-07T02:28:09;93950.47;;;-0.24;83.87
55590;BME280;41452;42.780;23.116;2023-04-07T02:30:34;94023.66;;;0.21;83.35
55590;BME280;41452;42.780;23.116;2023-04-07T02:33:00;94009.97;;;0.21;82.86
55590;BME280;41452;42.780;23.116;2023-04-07T02:35:26;94017.03;;;0.27;82.45
55590;BME280;41452;42.780;23.116;2023-04-07T02:37:51;94014.06;;;0.30;83.22
55590;BME280;41452;42.780;23.116;2023-04-07T02:40:17;93979.22;;;0.11;83.74
55590;BME280;41452;42.780;23.116;2023-04-07T02:42:42;94006.69;;;0.27;83.29
55590;BME280;41452;42.780;23.116;2023-04-07T02:45:09;94022.28;;;0.33;82.85
55590;BME280;41452;42.780;23.116;2023-04-07T02:47:35;94020.75;;;0.39;82.65
55590;BME280;41452;42.780;23.116;2023-04-07T02:50:01;94024.44;;;0.45;82.40
55590;BME280;41452;42.780;23.116;2023-04-07T02:52:27;94003.56;;;0.31;81.91
55590;BME280;41452;42.780;23.116;2023-04-07T02:54:52;94029.44;;;0.46;81.90
55590;BME280;41452;42.780;23.116;2023-04-07T02:57:18;94026.50;;;0.49;82.25
55590;BME280;41452;42.780;23.116;2023-04-07T02:59:43;94026.31;;;0.51;82.20
55590;BME280;41452;42.780;23.116;2023-04-07T03:02:09;94021.94;;;0.51;80.87
55590;BME280;41452;42.780;23.116;2023-04-07T03:04:34;94025.06;;;0.47;80.01
55590;BME280;41452;42.780;23.116;2023-04-07T03:07:00;94014.13;;;0.45;80.50
55590;BME280;41452;42.780;23.116;2023-04-07T03:09:26;94028.63;;;0.46;79.58
55590;BME280;41452;42.780;23.116;2023-04-07T03:11:51;94016.06;;;0.43;80.79
55590;BME280;41452;42.780;23.116;2023-04-07T03:14:17;94018.00;;;0.41;81.07
55590;BME280;41452;42.780;23.116;2023-04-07T03:16:42;94022.56;;;0.38;80.18
55590;BME280;41452;42.780;23.116;2023-04-07T03:19:08;94016.41;;;0.40;80.86
55590;BME280;41452;42.780;23.116;2023-04-07T03:21:36;94022.50;;;0.47;81.63
55590;BME280;41452;42.780;23.116;2023-04-07T03:24:03;94022.22;;;0.42;80.58
55590;BME280;41452;42.780;23.116;2023-04-07T03:26:28;94011.94;;;0.33;80.26
55590;BME280;41452;42.780;23.116;2023-04-07T03:28:53;93998.28;;;0.25;81.12
55590;BME280;41452;42.780;23.116;2023-04-07T03:31:19;93990.47;;;0.18;80.83
55590;BME280;41452;42.780;23.116;2023-04-07T03:33:45;94023.53;;;0.37;81.25
55590;BME280;41452;42.780;23.116;2023-04-07T03:36:10;94022.22;;;0.42;80.95
55590;BME280;41452;42.780;23.116;2023-04-07T03:38:36;94019.78;;;0.40;80.77
55590;BME280;41452;42.780;23.116;2023-04-07T03:41:01;94028.63;;;0.46;80.44
55590;BME280;41452;42.780;23.116;2023-04-07T03:43:27;94027.66;;;0.47;80.83
55590;BME280;41452;42.780;23.116;2023-04-07T03:45:52;94001.59;;;0.33;80.55
55590;BME280;41452;42.780;23.116;2023-04-07T03:48:18;94028.91;;;0.51;80.87
55590;BME280;41452;42.780;23.116;2023-04-07T03:50:44;94029.91;;;0.50;80.87
55590;BME280;41452;42.780;23.116;2023-04-07T03:53:09;94019.56;;;0.50;80.21
55590;BME280;41452;42.780;23.116;2023-04-07T03:55:36;94033.56;;;0.55;80.75
55590;BME280;41452;42.780;23.116;2023-04-07T03:58:02;94035.69;;;0.52;81.05
55590;BME280;41452;42.780;23.116;2023-04-07T04:00:27;94035.84;;;0.50;82.24
55590;BME280;41452;42.780;23.116;2023-04-07T04:02:52;94030.75;;;0.42;81.93
55590;BME280;41452;42.780;23.116;2023-04-07T04:05:18;94042.16;;;0.48;82.43
55590;BME280;41452;42.780;23.116;2023-04-07T04:07:43;94043.28;;;0.53;81.87
55590;BME280;41452;42.780;23.116;2023-04-07T04:10:09;94048.50;;;0.60;81.94
55590;BME280;41452;42.780;23.116;2023-04-07T04:12:35;94022.84;;;0.44;82.21
55590;BME280;41452;42.780;23.116;2023-04-07T04:15:00;94047.88;;;0.58;82.18
55590;BME280;41452;42.780;23.116;2023-04-07T04:17:26;94042.38;;;0.61;81.95
55590;BME280;41452;42.780;23.116;2023-04-07T04:19:51;94041.50;;;0.69;81.61
55590;BME280;41452;42.780;23.116;2023-04-07T04:22:17;94051.31;;;0.73;81.30
55590;BME280;41452;42.780;23.116;2023-04-07T04:24:42;94049.97;;;0.78;80.31
55590;BME280;41452;42.780;23.116;2023-04-07T04:27:08;94020.63;;;0.55;81.34
55590;BME280;41452;42.780;23.116;2023-04-07T04:29:33;94028.13;;;0.65;83.38
55590;BME280;41452;42.780;23.116;2023-04-07T04:31:58;94050.41;;;0.81;82.87
55590;BME280;41452;42.780;23.116;2023-04-07T04:34:24;94054.16;;;0.79;82.71
55590;BME280;41452;42.780;23.116;2023-04-07T04:36:49;94051.41;;;0.80;80.98
55590;BME280;41452;42.780;23.116;2023-04-07T04:39:15;94053.56;;;0.77;81.28
55590;BME280;41452;42.780;23.116;2023-04-07T04:41:40;94059.63;;;0.84;80.81
55590;BME280;41452;42.780;23.116;2023-04-07T04:44:06;94035.25;;;0.63;81.07
55590;BME280;41452;42.780;23.116;2023-04-07T04:46:31;94049.06;;;0.70;80.20
55590;BME280;41452;42.780;23.116;2023-04-07T04:48:56;94059.16;;;0.80;80.47
55590;BME280;41452;42.780;23.116;2023-04-07T04:51:22;94064.97;;;0.82;80.00
55590;BME280;41452;42.780;23.116;2023-04-07T04:53:48;94068.97;;;0.85;80.77
55590;BME280;41452;42.780;23.116;2023-04-07T04:56:13;94072.28;;;0.79;80.08
55590;BME280;41452;42.780;23.116;2023-04-07T04:58:39;94071.28;;;0.80;79.60
55590;BME280;41452;42.780;23.116;2023-04-07T05:01:06;94084.03;;;0.81;79.14
55590;BME280;41452;42.780;23.116;2023-04-07T05:03:31;94072.16;;;0.87;79.52
55590;BME280;41452;42.780;23.116;2023-04-07T05:05:57;94068.16;;;0.84;79.29
55590;BME280;41452;42.780;23.116;2023-04-07T05:08:22;94063.34;;;0.81;79.86
55590;BME280;41452;42.780;23.116;2023-04-07T05:10:47;94070.94;;;0.83;80.54
55590;BME280;41452;42.780;23.116;2023-04-07T05:13:13;94082.78;;;0.92;80.14
55590;BME280;41452;42.780;23.116;2023-04-07T05:15:40;94057.56;;;0.79;80.76
55590;BME280;41452;42.780;23.116;2023-04-07T05:18:05;94094.66;;;1.01;80.06
55590;BME280;41452;42.780;23.116;2023-04-07T05:20:31;94090.81;;;0.97;80.88
55590;BME280;41452;42.780;23.116;2023-04-07T05:22:56;94096.53;;;1.07;80.58
55590;BME280;41452;42.780;23.116;2023-04-07T05:25:22;94099.22;;;1.14;80.13
55590;BME280;41452;42.780;23.116;2023-04-07T05:27:47;94081.03;;;1.07;80.75
55590;BME280;41452;42.780;23.116;2023-04-07T05:30:13;94092.97;;;1.23;79.43
55590;BME280;41452;42.780;23.116;2023-04-07T05:32:39;94102.16;;;1.26;78.67
55590;BME280;41452;42.780;23.116;2023-04-07T05:35:04;94095.47;;;1.31;78.72
55590;BME280;41452;42.780;23.116;2023-04-07T05:37:30;94098.41;;;1.28;78.55
55590;BME280;41452;42.780;23.116;2023-04-07T05:39:55;94104.94;;;1.39;78.58
55590;BME280;41452;42.780;23.116;2023-04-07T05:42:21;94098.97;;;1.39;77.52
55590;BME280;41452;42.780;23.116;2023-04-07T05:44:46;94107.66;;;1.52;78.01
55590;BME280;41452;42.780;23.116;2023-04-07T05:47:11;94105.00;;;1.61;76.23
55590;BME280;41452;42.780;23.116;2023-04-07T05:49:37;94106.22;;;1.65;76.28
55590;BME280;41452;42.780;23.116;2023-04-07T05:52:04;94106.41;;;1.63;76.63
55590;BME280;41452;42.780;23.116;2023-04-07T05:54:30;94097.50;;;1.66;76.66
55590;BME280;41452;42.780;23.116;2023-04-07T05:56:56;94102.19;;;1.77;75.84
55590;BME280;41452;42.780;23.116;2023-04-07T05:59:21;94085.59;;;1.71;76.43
55590;BME280;41452;42.780;23.116;2023-04-07T06:01:47;94086.03;;;1.75;75.17
55590;BME280;41452;42.780;23.116;2023-04-07T06:04:13;94088.47;;;1.77;75.27
55590;BME280;41452;42.780;23.116;2023-04-07T06:06:38;94098.50;;;1.86;75.64
55590;BME280;41452;42.780;23.116;2023-04-07T06:09:03;94073.19;;;1.82;74.96
55590;BME280;41452;42.780;23.116;2023-04-07T06:11:29;94093.22;;;1.95;74.45
55590;BME280;41452;42.780;23.116;2023-04-07T06:13:54;94098.06;;;1.98;74.27
55590;BME280;41452;42.780;23.116;2023-04-07T06:16:20;94103.50;;;2.03;74.38
55590;BME280;41452;42.780;23.116;2023-04-07T06:18:45;94072.06;;;1.91;74.34
55590;BME280;41452;42.780;23.116;2023-04-07T06:21:11;94102.81;;;2.16;72.48
55590;BME280;41452;42.780;23.116;2023-04-07T06:23:36;94098.25;;;2.18;73.80
55590;BME280;41452;42.780;23.116;2023-04-07T06:26:02;94083.44;;;2.12;74.08
55590;BME280;41452;42.780;23.116;2023-04-07T06:28:27;94106.09;;;2.24;74.87
55590;BME280;41452;42.780;23.116;2023-04-07T06:30:53;94107.31;;;2.28;73.78
55590;BME280;41452;42.780;23.116;2023-04-07T06:33:18;94111.53;;;2.30;73.60
55590;BME280;41452;42.780;23.116;2023-04-07T06:35:48;94080.47;;;2.15;73.52
55590;BME280;41452;42.780;23.116;2023-04-07T06:38:13;94075.47;;;2.13;73.65
55590;BME280;41452;42.780;23.116;2023-04-07T06:40:38;94099.28;;;2.45;73.25
55590;BME280;41452;42.780;23.116;2023-04-07T06:43:04;94091.94;;;2.48;73.08
55590;BME280;41452;42.780;23.116;2023-04-07T06:45:30;94104.97;;;2.55;72.63
55590;BME280;41452;42.780;23.116;2023-04-07T06:47:55;94103.22;;;2.62;71.92
55590;BME280;41452;42.780;23.116;2023-04-07T06:50:21;94104.09;;;2.70;71.66
55590;BME280;41452;42.780;23.116;2023-04-07T06:52:46;94112.91;;;2.75;70.55
55590;BME280;41452;42.780;23.116;2023-04-07T06:55:12;94088.34;;;2.71;71.72
55590;BME280;41452;42.780;23.116;2023-04-07T06:57:37;94111.84;;;2.91;71.33
55590;BME280;41452;42.780;23.116;2023-04-07T07:00:03;94091.00;;;2.78;70.57
55590;BME280;41452;42.780;23.116;2023-04-07T07:02:28;94116.28;;;2.97;69.82
55590;BME280;41452;42.780;23.116;2023-04-07T07:04:54;94117.91;;;3.05;70.21
55590;BME280;41452;42.780;23.116;2023-04-07T07:07:19;94104.94;;;3.05;68.83
55590;BME280;41452;42.780;23.116;2023-04-07T07:09:45;94120.22;;;3.21;69.32
55590;BME280;41452;42.780;23.116;2023-04-07T07:12:10;94102.03;;;3.15;68.66
55590;BME280;41452;42.780;23.116;2023-04-07T07:14:36;94099.69;;;3.20;66.81
55590;BME280;41452;42.780;23.116;2023-04-07T07:17:01;94116.50;;;3.31;66.62
55590;BME280;41452;42.780;23.116;2023-04-07T07:19:26;94132.09;;;3.37;67.22
55590;BME280;41452;42.780;23.116;2023-04-07T07:21:52;94129.72;;;3.36;66.42
55590;BME280;41452;42.780;23.116;2023-04-07T07:24:17;94131.50;;;3.35;67.34
55590;BME280;41452;42.780;23.116;2023-04-07T07:26:42;94139.69;;;3.39;68.48
55590;BME280;41452;42.780;23.116;2023-04-07T07:29:09;94129.66;;;3.29;67.50
55590;BME280;41452;42.780;23.116;2023-04-07T07:31:34;94136.69;;;3.35;66.66
55590;BME280;41452;42.780;23.116;2023-04-07T07:34:00;94139.09;;;3.37;67.06
55590;BME280;41452;42.780;23.116;2023-04-07T07:36:25;94124.31;;;3.37;67.21
55590;BME280;41452;42.780;23.116;2023-04-07T07:38:51;94127.22;;;3.21;68.41
55590;BME280;41452;42.780;23.116;2023-04-07T07:41:16;94125.88;;;3.32;65.98
55590;BME280;41452;42.780;23.116;2023-04-07T07:43:41;94151.75;;;3.47;66.32
55590;BME280;41452;42.780;23.116;2023-04-07T07:46:07;94152.34;;;3.49;65.30
55590;BME280;41452;42.780;23.116;2023-04-07T07:48:33;94155.19;;;3.54;66.78
55590;BME280;41452;42.780;23.116;2023-04-07T07:50:58;94145.81;;;3.59;66.09
55590;BME280;41452;42.780;23.116;2023-04-07T07:53:23;94144.63;;;3.62;65.09
55590;BME280;41452;42.780;23.116;2023-04-07T07:55:49;94153.84;;;3.71;66.26
55590;BME280;41452;42.780;23.116;2023-04-07T07:58:15;94143.69;;;3.70;65.92
55590;BME280;41452;42.780;23.116;2023-04-07T08:00:40;94158.34;;;3.84;66.20
55590;BME280;41452;42.780;23.116;2023-04-07T08:03:06;94145.97;;;3.93;64.33
55590;BME280;41452;42.780;23.116;2023-04-07T08:05:31;94147.56;;;3.94;65.03
55590;BME280;41452;42.780;23.116;2023-04-07T08:07:57;94148.16;;;3.89;64.47
55590;BME280;41452;42.780;23.116;2023-04-07T08:10:22;94127.34;;;3.83;65.59
55590;BME280;41452;42.780;23.116;2023-04-07T08:12:49;94142.19;;;3.95;65.92
55590;BME280;41452;42.780;23.116;2023-04-07T08:15:14;94163.03;;;4.15;65.88
55590;BME280;41452;42.780;23.116;2023-04-07T08:17:41;94159.06;;;4.19;64.17
55590;BME280;41452;42.780;23.116;2023-04-07T08:20:06;94159.28;;;4.25;63.10
55590;BME280;41452;42.780;23.116;2023-04-07T08:22:32;94164.09;;;4.34;65.20
55590;BME280;41452;42.780;23.116;2023-04-07T08:24:58;94151.53;;;4.45;63.95
55590;BME280;41452;42.780;23.116;2023-04-07T08:27:23;94138.69;;;4.30;62.67
55590;BME280;41452;42.780;23.116;2023-04-07T08:30:01;94158.56;;;4.44;64.39
55590;BME280;41452;42.780;23.116;2023-04-07T08:32:40;94158.16;;;4.41;63.99
55590;BME280;41452;42.780;23.116;2023-04-07T08:35:05;94152.13;;;4.47;65.83
55590;BME280;41452;42.780;23.116;2023-04-07T08:37:32;94145.13;;;4.47;63.91
55590;BME280;41452;42.780;23.116;2023-04-07T08:39:58;94155.38;;;4.55;64.22
55590;BME280;41452;42.780;23.116;2023-04-07T08:42:27;94142.75;;;4.52;62.08
55590;BME280;41452;42.780;23.116;2023-04-07T08:45:01;94152.56;;;4.57;62.50
55590;BME280;41452;42.780;23.116;2023-04-07T08:47:29;94137.34;;;4.47;62.39
55590;BME280;41452;42.780;23.116;2023-04-07T08:49:59;94159.19;;;4.73;62.08
55590;BME280;41452;42.780;23.116;2023-04-07T08:52:33;94133.56;;;4.70;63.62
55590;BME280;41452;42.780;23.116;2023-04-07T08:54:59;94140.56;;;4.76;63.62
55590;BME280;41452;42.780;23.116;2023-04-07T08:57:29;94154.59;;;4.88;63.38
55590;BME280;41452;42.780;23.116;2023-04-07T08:59:57;94153.41;;;4.84;60.56
55590;BME280;41452;42.780;23.116;2023-04-07T09:02:24;94158.38;;;4.79;63.24
55590;BME280;41452;42.780;23.116;2023-04-07T09:04:50;94169.81;;;4.78;62.87
55590;BME280;41452;42.780;23.116;2023-04-07T09:07:16;94152.97;;;4.74;61.68
55590;BME280;41452;42.780;23.116;2023-04-07T09:09:41;94143.78;;;4.78;63.61
55590;BME280;41452;42.780;23.116;2023-04-07T09:12:06;94166.63;;;4.96;61.65
55590;BME280;41452;42.780;23.116;2023-04-07T09:14:32;94161.22;;;4.98;65.05
55590;BME280;41452;42.780;23.116;2023-04-07T09:16:57;94157.19;;;4.95;63.85
55590;BME280;41452;42.780;23.116;2023-04-07T09:19:26;94165.00;;;4.95;65.17
55590;BME280;41452;42.780;23.116;2023-04-07T09:21:52;94164.63;;;5.05;63.43
55590;BME280;41452;42.780;23.116;2023-04-07T09:24:28;94160.22;;;4.99;61.90
55590;BME280;41452;42.780;23.116;2023-04-07T09:27:17;94116.34;;;4.69;62.85
55590;BME280;41452;42.780;23.116;2023-04-07T09:29:44;94166.59;;;4.83;64.63
55590;BME280;41452;42.780;23.116;2023-04-07T09:32:10;94165.63;;;4.90;66.42
55590;BME280;41452;42.780;23.116;2023-04-07T09:34:38;94176.78;;;4.78;63.54
55590;BME280;41452;42.780;23.116;2023-04-07T09:37:04;94177.22;;;4.74;66.41
55590;BME280;41452;42.780;23.116;2023-04-07T09:39:30;94155.94;;;4.51;66.25
55590;BME280;41452;42.780;23.116;2023-04-07T09:41:56;94175.78;;;4.59;66.63
55590;BME280;41452;42.780;23.116;2023-04-07T09:44:22;94175.97;;;4.57;68.67
55590;BME280;41452;42.780;23.116;2023-04-07T09:46:56;94176.19;;;4.62;66.87
55590;BME280;41452;42.780;23.116;2023-04-07T09:49:22;94181.38;;;4.69;68.00
55590;BME280;41452;42.780;23.116;2023-04-07T09:52:00;94176.38;;;4.74;66.65
55590;BME280;41452;42.780;23.116;2023-04-07T09:56:59;94173.81;;;4.81;67.01
55590;BME280;41452;42.780;23.116;2023-04-07T09:59:27;94179.59;;;4.76;67.52
55590;BME280;41452;42.780;23.116;2023-04-07T10:01:53;94137.53;;;4.46;68.46
55590;BME280;41452;42.780;23.116;2023-04-07T10:04:19;94180.97;;;4.65;68.18
55590;BME280;41452;42.780;23.116;2023-04-07T10:06:46;94187.00;;;4.79;67.05
55590;BME280;41452;42.780;23.116;2023-04-07T10:09:12;94168.00;;;4.72;67.99
55590;BME280;41452;42.780;23.116;2023-04-07T10:11:42;94178.81;;;4.82;66.74
55590;BME280;41452;42.780;23.116;2023-04-07T10:14:10;94175.00;;;4.91;66.61
55590;BME280;41452;42.780;23.116;2023-04-07T10:16:41;94171.63;;;5.04;68.80
55590;BME280;41452;42.780;23.116;2023-04-07T10:19:07;94171.22;;;5.14;69.37
55590;BME280;41452;42.780;23.116;2023-04-07T10:21:34;94171.22;;;5.14;68.31
55590;BME280;41452;42.780;23.116;2023-04-07T10:27:08;94173.22;;;5.25;65.54
55590;BME280;41452;42.780;23.116;2023-04-07T10:29:39;94171.84;;;5.29;66.79
55590;BME280;41452;42.780;23.116;2023-04-07T10:32:06;94157.78;;;5.30;66.06
55590;BME280;41452;42.780;23.116;2023-04-07T10:37:16;94182.03;;;5.31;63.41
55590;BME280;41452;42.780;23.116;2023-04-07T10:39:45;94179.03;;;5.34;65.89
55590;BME280;41452;42.780;23.116;2023-04-07T10:45:01;94175.81;;;5.25;65.67
55590;BME280;41452;42.780;23.116;2023-04-07T10:47:27;94182.03;;;5.38;65.67
55590;BME280;41452;42.780;23.116;2023-04-07T10:52:37;94173.44;;;5.44;66.17
55590;BME280;41452;42.780;23.116;2023-04-07T10:55:28;94180.22;;;5.45;65.28
55590;BME280;41452;42.780;23.116;2023-04-07T10:58:25;94186.03;;;5.53;66.00
55590;BME280;41452;42.780;23.116;2023-04-07T11:03:32;94185.03;;;5.41;65.63
55590;BME280;41452;42.780;23.116;2023-04-07T11:06:08;94169.03;;;5.24;68.41
55590;BME280;41452;42.780;23.116;2023-04-07T11:08:36;94180.44;;;5.37;68.84
55590;BME280;41452;42.780;23.116;2023-04-07T11:11:02;94192.66;;;5.29;67.75
55590;BME280;41452;42.780;23.116;2023-04-07T11:13:43;94187.44;;;5.43;68.24
55590;BME280;41452;42.780;23.116;2023-04-07T11:16:08;94193.03;;;5.53;69.07
55590;BME280;41452;42.780;23.116;2023-04-07T11:18:35;94190.25;;;5.41;66.18
55590;BME280;41452;42.780;23.116;2023-04-07T11:21:05;94191.84;;;5.49;68.76
55590;BME280;41452;42.780;23.116;2023-04-07T11:23:41;94189.03;;;5.57;67.92
55590;BME280;41452;42.780;23.116;2023-04-07T11:26:11;94168.22;;;5.24;68.76
55590;BME280;41452;42.780;23.116;2023-04-07T11:28:50;94172.44;;;5.25;68.12
55590;BME280;41452;42.780;23.116;2023-04-07T11:31:28;94173.44;;;5.17;68.16
55590;BME280;41452;42.780;23.116;2023-04-07T11:33:56;94194.06;;;5.39;67.67
55590;BME280;41452;42.780;23.116;2023-04-07T11:36:41;94191.03;;;5.42;68.44
55590;BME280;41452;42.780;23.116;2023-04-07T11:39:19;94189.84;;;5.38;67.92
55590;BME280;41452;42.780;23.116;2023-04-07T11:41:47;94143.19;;;5.16;66.34
55590;BME280;41452;42.780;23.116;2023-04-07T11:44:12;94192.66;;;5.56;66.60
55590;BME280;41452;42.780;23.116;2023-04-07T11:46:58;94192.63;;;5.63;66.39
55590;BME280;41452;42.780;23.116;2023-04-07T11:49:26;94194.19;;;5.77;65.10
55590;BME280;41452;42.780;23.116;2023-04-07T11:52:05;94196.19;;;5.82;66.72
55590;BME280;41452;42.780;23.116;2023-04-07T11:54:41;94190.19;;;5.75;65.50
55590;BME280;41452;42.780;23.116;2023-04-07T11:57:07;94195.00;;;5.78;63.29
55590;BME280;41452;42.780;23.116;2023-04-07T11:59:34;94190.59;;;5.78;65.96
55590;BME280;41452;42.780;23.116;2023-04-07T12:01:59;94194.81;;;5.72;66.47
55590;BME280;41452;42.780;23.116;2023-04-07T12:04:25;94189.41;;;5.61;63.63
55590;BME280;41452;42.780;23.116;2023-04-07T12:06:50;94164.59;;;5.58;67.84
55590;BME280;41452;42.780;23.116;2023-04-07T12:09:30;94181.38;;;5.76;67.63
55590;BME280;41452;42.780;23.116;2023-04-07T12:11:57;94191.38;;;5.92;70.11
55590;BME280;41452;42.780;23.116;2023-04-07T12:14:26;94183.53;;;6.05;67.59
55590;BME280;41452;42.780;23.116;2023-04-07T12:16:52;94183.53;;;6.05;67.13
55590;BME280;41452;42.780;23.116;2023-04-07T12:19:20;94163.94;;;5.83;65.61
55590;BME280;41452;42.780;23.116;2023-04-07T12:21:46;94193.00;;;5.80;65.87
55590;BME280;41452;42.780;23.116;2023-04-07T12:24:11;94197.41;;;5.79;65.85
55590;BME280;41452;42.780;23.116;2023-04-07T12:26:37;94186.41;;;5.70;67.51
55590;BME280;41452;42.780;23.116;2023-04-07T12:29:02;94194.22;;;5.70;68.03
55590;BME280;41452;42.780;23.116;2023-04-07T12:31:33;94183.38;;;5.74;69.52
55590;BME280;41452;42.780;23.116;2023-04-07T12:33:59;94187.38;;;5.76;68.14
55590;BME280;41452;42.780;23.116;2023-04-07T12:36:25;94182.38;;;5.75;68.19
55590;BME280;41452;42.780;23.116;2023-04-07T12:38:52;94196.56;;;5.92;68.42
55590;BME280;41452;42.780;23.116;2023-04-07T12:41:17;94196.59;;;5.85;67.55
55590;BME280;41452;42.780;23.116;2023-04-07T12:43:43;94189.16;;;5.89;68.58
55590;BME280;41452;42.780;23.116;2023-04-07T12:46:08;94187.34;;;5.89;67.68
55590;BME280;41452;42.780;23.116;2023-04-07T12:48:34;94196.00;;;5.77;68.13
55590;BME280;41452;42.780;23.116;2023-04-07T12:50:59;94201.00;;;5.92;69.31
55590;BME280;41452;42.780;23.116;2023-04-07T12:53:25;94196.78;;;5.84;66.82
55590;BME280;41452;42.780;23.116;2023-04-07T12:55:51;94170.72;;;5.77;69.36
55590;BME280;41452;42.780;23.116;2023-04-07T12:58:17;94189.38;;;6.01;69.20
55590;BME280;41452;42.780;23.116;2023-04-07T13:00:43;94204.63;;;5.97;68.97
55590;BME280;41452;42.780;23.116;2023-04-07T13:03:09;94188.75;;;5.92;69.23
55590;BME280;41452;42.780;23.116;2023-04-07T13:05:34;94205.19;;;5.86;67.60
55590;BME280;41452;42.780;23.116;2023-04-07T13:08:00;94201.00;;;5.78;69.20
55590;BME280;41452;42.780;23.116;2023-04-07T13:10:25;94155.78;;;5.46;69.71
55590;BME280;41452;42.780;23.116;2023-04-07T13:12:51;94204.00;;;5.75;69.47
55590;BME280;41452;42.780;23.116;2023-04-07T13:15:17;94204.66;;;5.70;70.77
55590;BME280;41452;42.780;23.116;2023-04-07T13:17:43;94205.03;;;5.61;71.69
55590;BME280;41452;42.780;23.116;2023-04-07T13:20:08;94206.63;;;5.75;71.66
55590;BME280;41452;42.780;23.116;2023-04-07T13:22:34;94204.84;;;5.69;71.57
55590;BME280;41452;42.780;23.116;2023-04-07T13:25:00;94205.00;;;5.87;73.33
55590;BME280;41452;42.780;23.116;2023-04-07T13:27:25;94205.97;;;5.93;70.99